sensor_id;sensor_type;location;lat;lon;timestamp;P1;durP1;ratioP1;P2;durP2;ratioP2
5795;SDS011;2924;51.458;7.046;2023-03-14T00:01:21;6.67;;;0.97;;
5795;SDS011;2924;51.458;7.046;2023-03-14T00:03:47;5.47;;;1.40;;
5795;SDS011;2924;51.458;7.046;2023-03-14T00:06:13;7.53;;;1.20;;
5795;SDS011;2924;51.458;7.046;2023-03-14T00:08:40;9.67;;;1.57;;
5795;SDS011;2924;51.458;7.046;2023-03-14T00:11:09;6.50;;;1.40;;
5795;SDS011;2924;51.458;7.046;2023-03-14T00:13:39;2.30;;;1.10;;
5795;SDS011;2924;51.458;7.046;2023-03-14T00:16:05;8.03;;;1.80;;
5795;SDS011;2924;51.458;7.046;2023-03-14T00:18:33;13.63;;;1.77;;
5795;SDS011;2924;51.458;7.046;2023-03-14T00:20:59;5.57;;;1.50;;
5795;SDS011;2924;51.458;7.046;2023-03-14T00:23:26;5.40;;;1.40;;
5795;SDS011;2924;51.458;7.046;2023-03-14T00:25:53;4.63;;;2.20;;
5795;SDS011;2924;51.458;7.046;2023-03-14T00:28:22;5.23;;;1.50;;
5795;SDS011;2924;51.458;7.046;2023-03-14T00:30:48;6.63;;;2.03;;
5795;SDS011;2924;51.458;7.046;2023-03-14T00:33:14;1.33;;;1.27;;
5795;SDS011;2924;51.458;7.046;2023-03-14T00:35:39;8.30;;;2.17;;
5795;SDS011;2924;51.458;7.046;2023-03-14T00:38:05;6.20;;;1.23;;
5795;SDS011;2924;51.458;7.046;2023-03-14T00:40:30;8.97;;;1.47;;
5795;SDS011;2924;51.458;7.046;2023-03-14T00:42:56;8.73;;;1.47;;
5795;SDS011;2924;51.458;7.046;2023-03-14T00:45:22;4.10;;;1.67;;
5795;SDS011;2924;51.458;7.046;2023-03-14T00:47:47;7.00;;;2.10;;
5795;SDS011;2924;51.458;7.046;2023-03-14T00:50:13;4.77;;;1.10;;
5795;SDS011;2924;51.458;7.046;2023-03-14T00:52:39;3.57;;;1.10;;
5795;SDS011;2924;51.458;7.046;2023-03-14T00:55:04;4.00;;;1.33;;
5795;SDS011;2924;51.458;7.046;2023-03-14T00:57:30;4.33;;;1.40;;
5795;SDS011;2924;51.458;7.046;2023-03-14T00:59:56;9.70;;;1.20;;
5795;SDS011;2924;51.458;7.046;2023-03-14T01:02:21;8.57;;;1.50;;
5795;SDS011;2924;51.458;7.046;2023-03-14T01:04:47;3.60;;;0.73;;
5795;SDS011;2924;51.458;7.046;2023-03-14T01:07:14;2.30;;;0.87;;
5795;SDS011;2924;51.458;7.046;2023-03-14T01:09:40;6.10;;;0.70;;
5795;SDS011;2924;51.458;7.046;2023-03-14T01:12:06;3.10;;;0.70;;
5795;SDS011;2924;51.458;7.046;2023-03-14T01:14:32;4.10;;;0.93;;
5795;SDS011;2924;51.458;7.046;2023-03-14T01:16:57;5.83;;;0.70;;
5795;SDS011;2924;51.458;7.046;2023-03-14T01:19:26;1.80;;;0.50;;
5795;SDS011;2924;51.458;7.046;2023-03-14T01:21:53;4.00;;;0.80;;
5795;SDS011;2924;51.458;7.046;2023-03-14T01:24:18;6.80;;;1.07;;
5795;SDS011;2924;51.458;7.046;2023-03-14T01:26:45;3.97;;;0.83;;
5795;SDS011;2924;51.458;7.046;2023-03-14T01:29:11;0.97;;;0.70;;
5795;SDS011;2924;51.458;7.046;2023-03-14T01:31:37;2.83;;;0.90;;
5795;SDS011;2924;51.458;7.046;2023-03-14T01:34:03;2.63;;;0.77;;
5795;SDS011;2924;51.458;7.046;2023-03-14T01:36:28;3.17;;;0.83;;
5795;SDS011;2924;51.458;7.046;2023-03-14T01:38:54;11.23;;;1.30;;
5795;SDS011;2924;51.458;7.046;2023-03-14T01:41:21;6.83;;;1.43;;
5795;SDS011;2924;51.458;7.046;2023-03-14T01:43:48;5.23;;;1.20;;
5795;SDS011;2924;51.458;7.046;2023-03-14T01:46:17;15.53;;;1.60;;
5795;SDS011;2924;51.458;7.046;2023-03-14T01:54:19;11.67;;;1.77;;
5795;SDS011;2924;51.458;7.046;2023-03-14T02:02:24;8.33;;;1.00;;
5795;SDS011;2924;51.458;7.046;2023-03-14T02:04:52;8.60;;;1.67;;
5795;SDS011;2924;51.458;7.046;2023-03-14T02:07:20;4.93;;;0.90;;
5795;SDS011;2924;51.458;7.046;2023-03-14T02:09:48;5.13;;;1.07;;
5795;SDS011;2924;51.458;7.046;2023-03-14T02:12:15;3.90;;;1.13;;
5795;SDS011;2924;51.458;7.046;2023-03-14T02:14:42;4.37;;;0.73;;
5795;SDS011;2924;51.458;7.046;2023-03-14T02:17:13;4.33;;;1.20;;
5795;SDS011;2924;51.458;7.046;2023-03-14T02:22:30;4.23;;;0.90;;
5795;SDS011;2924;51.458;7.046;2023-03-14T02:27:32;2.83;;;1.07;;
5795;SDS011;2924;51.458;7.046;2023-03-14T02:30:06;5.40;;;0.80;;
5795;SDS011;2924;51.458;7.046;2023-03-14T02:32:54;4.20;;;0.67;;
5795;SDS011;2924;51.458;7.046;2023-03-14T02:35:24;7.03;;;0.93;;
5795;SDS011;2924;51.458;7.046;2023-03-14T02:40:49;7.30;;;1.40;;
5795;SDS011;2924;51.458;7.046;2023-03-14T02:43:15;13.70;;;1.63;;
5795;SDS011;2924;51.458;7.046;2023-03-14T02:45:44;4.73;;;1.20;;
5795;SDS011;2924;51.458;7.046;2023-03-14T02:51:10;3.10;;;1.20;;
5795;SDS011;2924;51.458;7.046;2023-03-14T02:53:37;3.60;;;1.07;;
5795;SDS011;2924;51.458;7.046;2023-03-14T02:56:03;9.00;;;1.60;;
5795;SDS011;2924;51.458;7.046;2023-03-14T02:58:30;4.73;;;1.10;;
5795;SDS011;2924;51.458;7.046;2023-03-14T03:00:56;7.30;;;1.53;;
5795;SDS011;2924;51.458;7.046;2023-03-14T03:03:21;5.90;;;1.33;;
5795;SDS011;2924;51.458;7.046;2023-03-14T03:05:51;4.67;;;1.50;;
5795;SDS011;2924;51.458;7.046;2023-03-14T03:08:19;12.90;;;1.13;;
5795;SDS011;2924;51.458;7.046;2023-03-14T03:10:46;2.33;;;0.80;;
5795;SDS011;2924;51.458;7.046;2023-03-14T03:13:12;5.10;;;1.57;;
5795;SDS011;2924;51.458;7.046;2023-03-14T03:15:38;9.40;;;1.13;;
5795;SDS011;2924;51.458;7.046;2023-03-14T03:18:04;4.13;;;1.40;;
5795;SDS011;2924;51.458;7.046;2023-03-14T03:20:30;5.63;;;1.60;;
5795;SDS011;2924;51.458;7.046;2023-03-14T03:22:55;10.73;;;3.23;;
5795;SDS011;2924;51.458;7.046;2023-03-14T03:25:21;9.43;;;0.97;;
5795;SDS011;2924;51.458;7.046;2023-03-14T03:27:47;5.53;;;1.53;;
5795;SDS011;2924;51.458;7.046;2023-03-14T03:30:13;9.87;;;1.53;;
5795;SDS011;2924;51.458;7.046;2023-03-14T03:32:39;6.20;;;1.77;;
5795;SDS011;2924;51.458;7.046;2023-03-14T03:35:04;6.20;;;1.17;;
5795;SDS011;2924;51.458;7.046;2023-03-14T03:37:31;8.07;;;1.20;;
5795;SDS011;2924;51.458;7.046;2023-03-14T03:39:57;4.53;;;1.23;;
5795;SDS011;2924;51.458;7.046;2023-03-14T03:42:23;7.33;;;1.70;;
5795;SDS011;2924;51.458;7.046;2023-03-14T03:44:49;7.30;;;1.20;;
5795;SDS011;2924;51.458;7.046;2023-03-14T03:47:14;3.17;;;1.03;;
5795;SDS011;2924;51.458;7.046;2023-03-14T03:49:40;3.57;;;1.33;;
5795;SDS011;2924;51.458;7.046;2023-03-14T03:52:06;7.37;;;1.13;;
5795;SDS011;2924;51.458;7.046;2023-03-14T03:54:31;9.13;;;1.07;;
5795;SDS011;2924;51.458;7.046;2023-03-14T03:56:57;12.40;;;1.77;;
5795;SDS011;2924;51.458;7.046;2023-03-14T04:02:16;8.50;;;1.40;;
5795;SDS011;2924;51.458;7.046;2023-03-14T04:04:42;4.27;;;1.47;;
5795;SDS011;2924;51.458;7.046;2023-03-14T04:07:07;3.30;;;1.10;;
5795;SDS011;2924;51.458;7.046;2023-03-14T04:09:34;9.30;;;1.53;;
5795;SDS011;2924;51.458;7.046;2023-03-14T04:11:59;4.70;;;0.83;;
5795;SDS011;2924;51.458;7.046;2023-03-14T04:14:25;9.23;;;1.27;;
5795;SDS011;2924;51.458;7.046;2023-03-14T04:16:51;6.83;;;1.37;;
5795;SDS011;2924;51.458;7.046;2023-03-14T04:19:16;10.20;;;1.60;;
5795;SDS011;2924;51.458;7.046;2023-03-14T04:21:42;3.90;;;1.00;;
5795;SDS011;2924;51.458;7.046;2023-03-14T04:24:10;6.50;;;0.93;;
5795;SDS011;2924;51.458;7.046;2023-03-14T04:26:36;2.00;;;0.70;;
5795;SDS011;2924;51.458;7.046;2023-03-14T04:29:02;4.73;;;1.00;;
5795;SDS011;2924;51.458;7.046;2023-03-14T04:31:27;2.10;;;0.67;;
5795;SDS011;2924;51.458;7.046;2023-03-14T04:33:53;2.63;;;0.80;;
5795;SDS011;2924;51.458;7.046;2023-03-14T04:36:19;7.37;;;1.30;;
5795;SDS011;2924;51.458;7.046;2023-03-14T04:38:44;1.93;;;0.70;;
5795;SDS011;2924;51.458;7.046;2023-03-14T04:41:10;0.63;;;0.60;;
5795;SDS011;2924;51.458;7.046;2023-03-14T04:43:36;1.13;;;0.40;;
5795;SDS011;2924;51.458;7.046;2023-03-14T04:46:02;1.07;;;0.50;;
5795;SDS011;2924;51.458;7.046;2023-03-14T04:48:27;0.93;;;0.40;;
5795;SDS011;2924;51.458;7.046;2023-03-14T04:50:54;0.40;;;0.40;;
5795;SDS011;2924;51.458;7.046;2023-03-14T04:53:20;0.60;;;0.30;;
5795;SDS011;2924;51.458;7.046;2023-03-14T04:55:52;1.77;;;0.53;;
5795;SDS011;2924;51.458;7.046;2023-03-14T04:58:19;2.40;;;0.50;;
5795;SDS011;2924;51.458;7.046;2023-03-14T05:00:46;4.00;;;0.60;;
5795;SDS011;2924;51.458;7.046;2023-03-14T05:03:11;2.13;;;0.57;;
5795;SDS011;2924;51.458;7.046;2023-03-14T05:05:39;1.43;;;0.60;;
5795;SDS011;2924;51.458;7.046;2023-03-14T05:08:05;3.90;;;0.80;;
5795;SDS011;2924;51.458;7.046;2023-03-14T05:10:30;1.70;;;0.50;;
5795;SDS011;2924;51.458;7.046;2023-03-14T05:12:56;3.37;;;0.70;;
5795;SDS011;2924;51.458;7.046;2023-03-14T05:15:21;2.60;;;0.40;;
5795;SDS011;2924;51.458;7.046;2023-03-14T05:17:47;0.70;;;0.50;;
5795;SDS011;2924;51.458;7.046;2023-03-14T05:20:14;5.03;;;0.80;;
5795;SDS011;2924;51.458;7.046;2023-03-14T05:22:40;1.03;;;0.47;;
5795;SDS011;2924;51.458;7.046;2023-03-14T05:25:07;2.93;;;0.70;;
5795;SDS011;2924;51.458;7.046;2023-03-14T05:27:34;1.27;;;0.70;;
5795;SDS011;2924;51.458;7.046;2023-03-14T05:30:00;1.17;;;0.60;;
5795;SDS011;2924;51.458;7.046;2023-03-14T05:32:26;0.63;;;0.30;;
5795;SDS011;2924;51.458;7.046;2023-03-14T05:34:52;3.50;;;0.60;;
5795;SDS011;2924;51.458;7.046;2023-03-14T05:37:17;4.83;;;0.60;;
5795;SDS011;2924;51.458;7.046;2023-03-14T05:39:43;3.30;;;0.50;;
5795;SDS011;2924;51.458;7.046;2023-03-14T05:42:09;7.17;;;0.90;;
5795;SDS011;2924;51.458;7.046;2023-03-14T05:44:34;1.63;;;0.97;;
5795;SDS011;2924;51.458;7.046;2023-03-14T05:47:00;5.40;;;1.03;;
5795;SDS011;2924;51.458;7.046;2023-03-14T05:49:26;4.63;;;1.30;;
5795;SDS011;2924;51.458;7.046;2023-03-14T05:51:51;2.30;;;1.73;;
5795;SDS011;2924;51.458;7.046;2023-03-14T05:54:17;5.40;;;2.03;;
5795;SDS011;2924;51.458;7.046;2023-03-14T05:56:43;5.60;;;2.50;;
5795;SDS011;2924;51.458;7.046;2023-03-14T05:59:08;8.20;;;3.33;;
5795;SDS011;2924;51.458;7.046;2023-03-14T06:01:34;7.03;;;3.40;;
5795;SDS011;2924;51.458;7.046;2023-03-14T06:04:00;5.83;;;2.87;;
5795;SDS011;2924;51.458;7.046;2023-03-14T06:06:26;11.83;;;2.87;;
5795;SDS011;2924;51.458;7.046;2023-03-14T06:08:51;5.77;;;2.80;;
5795;SDS011;2924;51.458;7.046;2023-03-14T06:11:17;7.30;;;3.40;;
5795;SDS011;2924;51.458;7.046;2023-03-14T06:13:43;9.33;;;3.57;;
5795;SDS011;2924;51.458;7.046;2023-03-14T06:16:08;5.17;;;3.40;;
5795;SDS011;2924;51.458;7.046;2023-03-14T06:18:34;8.00;;;3.70;;
5795;SDS011;2924;51.458;7.046;2023-03-14T06:21:00;5.67;;;2.83;;
5795;SDS011;2924;51.458;7.046;2023-03-14T06:23:26;7.83;;;2.90;;
5795;SDS011;2924;51.458;7.046;2023-03-14T06:25:52;4.27;;;2.60;;
5795;SDS011;2924;51.458;7.046;2023-03-14T06:28:17;6.17;;;2.30;;
5795;SDS011;2924;51.458;7.046;2023-03-14T06:30:43;4.40;;;2.23;;
5795;SDS011;2924;51.458;7.046;2023-03-14T06:33:09;4.70;;;2.07;;
5795;SDS011;2924;51.458;7.046;2023-03-14T06:35:34;3.10;;;1.67;;
5795;SDS011;2924;51.458;7.046;2023-03-14T06:38:00;3.77;;;2.07;;
5795;SDS011;2924;51.458;7.046;2023-03-14T06:40:26;5.30;;;1.73;;
5795;SDS011;2924;51.458;7.046;2023-03-14T06:42:51;1.40;;;1.30;;
5795;SDS011;2924;51.458;7.046;2023-03-14T06:45:17;3.50;;;1.10;;
5795;SDS011;2924;51.458;7.046;2023-03-14T06:47:43;1.60;;;1.00;;
5795;SDS011;2924;51.458;7.046;2023-03-14T06:50:10;3.90;;;1.13;;
5795;SDS011;2924;51.458;7.046;2023-03-14T06:52:36;1.13;;;0.70;;
5795;SDS011;2924;51.458;7.046;2023-03-14T06:55:02;2.40;;;1.00;;
5795;SDS011;2924;51.458;7.046;2023-03-14T06:57:28;2.77;;;1.00;;
5795;SDS011;2924;51.458;7.046;2023-03-14T06:59:54;1.57;;;0.60;;
5795;SDS011;2924;51.458;7.046;2023-03-14T07:02:19;3.93;;;0.70;;
5795;SDS011;2924;51.458;7.046;2023-03-14T07:04:46;2.10;;;0.60;;
5795;SDS011;2924;51.458;7.046;2023-03-14T07:07:12;4.57;;;1.13;;
5795;SDS011;2924;51.458;7.046;2023-03-14T07:09:38;1.27;;;0.50;;
5795;SDS011;2924;51.458;7.046;2023-03-14T07:12:04;0.47;;;0.40;;
5795;SDS011;2924;51.458;7.046;2023-03-14T07:14:30;2.73;;;0.67;;
5795;SDS011;2924;51.458;7.046;2023-03-14T07:16:56;1.87;;;0.70;;
5795;SDS011;2924;51.458;7.046;2023-03-14T07:19:21;1.33;;;0.47;;
5795;SDS011;2924;51.458;7.046;2023-03-14T07:21:47;0.53;;;0.40;;
5795;SDS011;2924;51.458;7.046;2023-03-14T07:24:13;0.60;;;0.43;;
5795;SDS011;2924;51.458;7.046;2023-03-14T07:26:38;1.63;;;0.50;;
5795;SDS011;2924;51.458;7.046;2023-03-14T07:29:04;0.40;;;0.40;;
5795;SDS011;2924;51.458;7.046;2023-03-14T07:31:30;0.50;;;0.47;;
5795;SDS011;2924;51.458;7.046;2023-03-14T07:33:56;0.40;;;0.40;;
5795;SDS011;2924;51.458;7.046;2023-03-14T07:36:22;2.10;;;0.57;;
5795;SDS011;2924;51.458;7.046;2023-03-14T07:38:48;0.73;;;0.40;;
5795;SDS011;2924;51.458;7.046;2023-03-14T07:41:14;0.40;;;0.40;;
5795;SDS011;2924;51.458;7.046;2023-03-14T07:43:40;0.60;;;0.60;;
5795;SDS011;2924;51.458;7.046;2023-03-14T07:46:06;2.00;;;0.60;;
5795;SDS011;2924;51.458;7.046;2023-03-14T07:48:31;1.90;;;0.40;;
5795;SDS011;2924;51.458;7.046;2023-03-14T07:50:57;1.27;;;0.40;;
5795;SDS011;2924;51.458;7.046;2023-03-14T07:53:23;1.23;;;0.60;;
5795;SDS011;2924;51.458;7.046;2023-03-14T07:55:50;1.90;;;0.57;;
5795;SDS011;2924;51.458;7.046;2023-03-14T07:58:17;1.70;;;0.67;;
5795;SDS011;2924;51.458;7.046;2023-03-14T08:00:43;0.60;;;0.37;;
5795;SDS011;2924;51.458;7.046;2023-03-14T08:03:09;3.90;;;0.77;;
5795;SDS011;2924;51.458;7.046;2023-03-14T08:05:35;2.47;;;0.60;;
5795;SDS011;2924;51.458;7.046;2023-03-14T08:08:02;0.63;;;0.50;;
5795;SDS011;2924;51.458;7.046;2023-03-14T08:10:28;0.70;;;0.70;;
5795;SDS011;2924;51.458;7.046;2023-03-14T08:12:54;2.33;;;1.00;;
5795;SDS011;2924;51.458;7.046;2023-03-14T08:15:21;0.90;;;0.90;;
5795;SDS011;2924;51.458;7.046;2023-03-14T08:17:48;1.17;;;0.77;;
5795;SDS011;2924;51.458;7.046;2023-03-14T08:20:23;0.67;;;0.67;;
5795;SDS011;2924;51.458;7.046;2023-03-14T08:22:50;1.20;;;1.10;;
5795;SDS011;2924;51.458;7.046;2023-03-14T08:25:16;1.97;;;0.93;;
5795;SDS011;2924;51.458;7.046;2023-03-14T08:27:42;3.07;;;0.93;;
5795;SDS011;2924;51.458;7.046;2023-03-14T08:30:09;8.40;;;1.57;;
5795;SDS011;2924;51.458;7.046;2023-03-14T08:32:37;2.40;;;1.17;;
5795;SDS011;2924;51.458;7.046;2023-03-14T08:35:03;0.93;;;0.93;;
5795;SDS011;2924;51.458;7.046;2023-03-14T08:37:33;1.40;;;1.03;;
5795;SDS011;2924;51.458;7.046;2023-03-14T08:39:59;4.00;;;1.13;;
5795;SDS011;2924;51.458;7.046;2023-03-14T08:42:25;3.43;;;1.17;;
5795;SDS011;2924;51.458;7.046;2023-03-14T08:44:51;9.47;;;1.40;;
5795;SDS011;2924;51.458;7.046;2023-03-14T08:47:17;2.00;;;1.00;;
5795;SDS011;2924;51.458;7.046;2023-03-14T08:49:43;1.03;;;0.70;;
5795;SDS011;2924;51.458;7.046;2023-03-14T08:52:08;1.43;;;1.00;;
5795;SDS011;2924;51.458;7.046;2023-03-14T08:54:34;0.90;;;0.90;;
5795;SDS011;2924;51.458;7.046;2023-03-14T08:57:00;1.10;;;0.83;;
5795;SDS011;2924;51.458;7.046;2023-03-14T08:59:25;2.00;;;1.00;;
5795;SDS011;2924;51.458;7.046;2023-03-14T09:01:51;2.47;;;1.00;;
5795;SDS011;2924;51.458;7.046;2023-03-14T09:04:17;0.73;;;0.73;;
5795;SDS011;2924;51.458;7.046;2023-03-14T09:06:42;1.03;;;0.90;;
5795;SDS011;2924;51.458;7.046;2023-03-14T09:09:08;1.33;;;0.87;;
5795;SDS011;2924;51.458;7.046;2023-03-14T09:11:34;1.40;;;1.40;;
5795;SDS011;2924;51.458;7.046;2023-03-14T09:14:00;1.87;;;1.77;;
5795;SDS011;2924;51.458;7.046;2023-03-14T09:16:26;5.40;;;2.00;;
5795;SDS011;2924;51.458;7.046;2023-03-14T09:18:52;1.93;;;1.83;;
5795;SDS011;2924;51.458;7.046;2023-03-14T09:21:24;1.73;;;1.63;;
5795;SDS011;2924;51.458;7.046;2023-03-14T09:23:50;1.50;;;1.50;;
5795;SDS011;2924;51.458;7.046;2023-03-14T09:26:16;4.57;;;1.93;;
5795;SDS011;2924;51.458;7.046;2023-03-14T09:28:41;0.70;;;0.67;;
5795;SDS011;2924;51.458;7.046;2023-03-14T09:31:08;2.13;;;0.70;;
5795;SDS011;2924;51.458;7.046;2023-03-14T09:33:35;1.80;;;0.57;;
5795;SDS011;2924;51.458;7.046;2023-03-14T09:36:02;2.20;;;0.50;;
5795;SDS011;2924;51.458;7.046;2023-03-14T09:38:28;0.37;;;0.37;;
5795;SDS011;2924;51.458;7.046;2023-03-14T09:40:54;1.03;;;0.83;;
5795;SDS011;2924;51.458;7.046;2023-03-14T09:43:22;2.40;;;1.00;;
5795;SDS011;2924;51.458;7.046;2023-03-14T09:45:51;1.30;;;1.20;;
5795;SDS011;2924;51.458;7.046;2023-03-14T09:48:19;1.27;;;1.17;;
5795;SDS011;2924;51.458;7.046;2023-03-14T09:50:53;0.70;;;0.70;;
5795;SDS011;2924;51.458;7.046;2023-03-14T09:53:23;5.50;;;1.03;;
5795;SDS011;2924;51.458;7.046;2023-03-14T09:55:53;2.67;;;1.70;;
5795;SDS011;2924;51.458;7.046;2023-03-14T09:58:23;1.80;;;1.30;;
5795;SDS011;2924;51.458;7.046;2023-03-14T10:00:50;2.20;;;1.40;;
5795;SDS011;2924;51.458;7.046;2023-03-14T10:03:33;4.50;;;1.77;;
5795;SDS011;2924;51.458;7.046;2023-03-14T10:05:59;1.03;;;0.93;;
5795;SDS011;2924;51.458;7.046;2023-03-14T10:08:25;1.20;;;0.93;;
5795;SDS011;2924;51.458;7.046;2023-03-14T10:10:51;1.17;;;0.97;;
5795;SDS011;2924;51.458;7.046;2023-03-14T10:13:22;0.70;;;0.70;;
5795;SDS011;2924;51.458;7.046;2023-03-14T10:15:54;3.70;;;0.97;;
5795;SDS011;2924;51.458;7.046;2023-03-14T10:18:24;1.70;;;0.70;;
5795;SDS011;2924;51.458;7.046;2023-03-14T10:21:01;1.53;;;0.77;;
5795;SDS011;2924;51.458;7.046;2023-03-14T10:23:27;1.17;;;0.70;;
5795;SDS011;2924;51.458;7.046;2023-03-14T10:26:00;1.00;;;0.80;;
5795;SDS011;2924;51.458;7.046;2023-03-14T10:28:41;1.13;;;0.90;;
5795;SDS011;2924;51.458;7.046;2023-03-14T10:31:45;6.43;;;1.20;;
5795;SDS011;2924;51.458;7.046;2023-03-14T10:34:23;2.40;;;1.37;;
5795;SDS011;2924;51.458;7.046;2023-03-14T10:39:51;1.07;;;1.07;;
5795;SDS011;2924;51.458;7.046;2023-03-14T10:42:19;1.37;;;1.27;;
5795;SDS011;2924;51.458;7.046;2023-03-14T10:45:00;0.60;;;0.60;;
5795;SDS011;2924;51.458;7.046;2023-03-14T10:47:28;1.13;;;1.03;;
5795;SDS011;2924;51.458;7.046;2023-03-14T10:49:55;2.30;;;0.93;;
5795;SDS011;2924;51.458;7.046;2023-03-14T10:54:54;0.97;;;0.77;;
5795;SDS011;2924;51.458;7.046;2023-03-14T10:57:28;2.73;;;1.00;;
5795;SDS011;2924;51.458;7.046;2023-03-14T10:59:54;7.03;;;0.90;;
5795;SDS011;2924;51.458;7.046;2023-03-14T11:02:34;1.43;;;0.90;;
5795;SDS011;2924;51.458;7.046;2023-03-14T11:07:48;1.90;;;0.90;;
5795;SDS011;2924;51.458;7.046;2023-03-14T11:10:23;1.73;;;0.70;;
5795;SDS011;2924;51.458;7.046;2023-03-14T11:19:00;3.03;;;1.20;;
5795;SDS011;2924;51.458;7.046;2023-03-14T11:29:26;0.77;;;0.63;;
5795;SDS011;2924;51.458;7.046;2023-03-14T11:31:54;1.57;;;0.93;;
5795;SDS011;2924;51.458;7.046;2023-03-14T11:34:27;0.60;;;0.60;;
5795;SDS011;2924;51.458;7.046;2023-03-14T11:37:07;2.47;;;0.63;;
5795;SDS011;2924;51.458;7.046;2023-03-14T11:39:44;0.67;;;0.60;;
5795;SDS011;2924;51.458;7.046;2023-03-14T11:42:17;1.20;;;0.53;;
5795;SDS011;2924;51.458;7.046;2023-03-14T11:44:44;1.63;;;0.80;;
5795;SDS011;2924;51.458;7.046;2023-03-14T11:47:19;1.27;;;0.60;;
5795;SDS011;2924;51.458;7.046;2023-03-14T11:49:50;2.10;;;0.60;;
5795;SDS011;2924;51.458;7.046;2023-03-14T11:52:35;5.40;;;0.60;;
5795;SDS011;2924;51.458;7.046;2023-03-14T11:57:58;1.33;;;0.50;;
5795;SDS011;2924;51.458;7.046;2023-03-14T12:00:28;2.83;;;0.80;;
5795;SDS011;2924;51.458;7.046;2023-03-14T12:10:51;4.67;;;1.60;;
5795;SDS011;2924;51.458;7.046;2023-03-14T12:13:19;3.43;;;0.70;;
5795;SDS011;2924;51.458;7.046;2023-03-14T12:15:56;4.83;;;1.33;;
5795;SDS011;2924;51.458;7.046;2023-03-14T12:18:27;2.60;;;0.80;;
5795;SDS011;2924;51.458;7.046;2023-03-14T12:20:59;3.60;;;0.80;;
5795;SDS011;2924;51.458;7.046;2023-03-14T12:23:27;0.80;;;0.50;;
5795;SDS011;2924;51.458;7.046;2023-03-14T12:28:36;13.13;;;1.10;;
5795;SDS011;2924;51.458;7.046;2023-03-14T12:42:01;2.73;;;1.57;;
5795;SDS011;2924;51.458;7.046;2023-03-14T12:46:56;5.50;;;1.33;;
5795;SDS011;2924;51.458;7.046;2023-03-14T12:49:39;3.83;;;1.57;;
5795;SDS011;2924;51.458;7.046;2023-03-14T12:52:10;4.57;;;1.10;;
5795;SDS011;2924;51.458;7.046;2023-03-14T12:54:50;6.77;;;1.63;;
5795;SDS011;2924;51.458;7.046;2023-03-14T13:00:32;4.53;;;1.20;;
5795;SDS011;2924;51.458;7.046;2023-03-14T13:03:12;11.43;;;2.00;;
5795;SDS011;2924;51.458;7.046;2023-03-14T13:06:00;14.03;;;1.57;;
5795;SDS011;2924;51.458;7.046;2023-03-14T13:11:04;5.40;;;1.30;;
5795;SDS011;2924;51.458;7.046;2023-03-14T13:13:34;16.13;;;2.07;;
5795;SDS011;2924;51.458;7.046;2023-03-14T13:16:01;6.30;;;1.93;;
5795;SDS011;2924;51.458;7.046;2023-03-14T13:18:33;12.57;;;2.30;;
5795;SDS011;2924;51.458;7.046;2023-03-14T13:21:02;8.77;;;1.10;;
5795;SDS011;2924;51.458;7.046;2023-03-14T13:23:36;14.63;;;2.60;;
5795;SDS011;2924;51.458;7.046;2023-03-14T13:26:02;7.57;;;2.27;;
5795;SDS011;2924;51.458;7.046;2023-03-14T13:28:31;22.00;;;3.00;;
5795;SDS011;2924;51.458;7.046;2023-03-14T13:31:03;16.00;;;2.43;;
5795;SDS011;2924;51.458;7.046;2023-03-14T13:33:30;5.73;;;1.60;;
5795;SDS011;2924;51.458;7.046;2023-03-14T13:36:00;13.13;;;2.30;;
5795;SDS011;2924;51.458;7.046;2023-03-14T13:38:29;14.70;;;2.00;;
5795;SDS011;2924;51.458;7.046;2023-03-14T13:40:58;4.13;;;1.80;;
5795;SDS011;2924;51.458;7.046;2023-03-14T13:43:31;11.70;;;2.10;;
5795;SDS011;2924;51.458;7.046;2023-03-14T13:46:14;12.80;;;2.07;;
5795;SDS011;2924;51.458;7.046;2023-03-14T13:48:57;11.40;;;2.70;;
5795;SDS011;2924;51.458;7.046;2023-03-14T13:51:26;14.67;;;2.40;;
5795;SDS011;2924;51.458;7.046;2023-03-14T13:53:57;10.70;;;2.10;;
5795;SDS011;2924;51.458;7.046;2023-03-14T13:56:29;21.47;;;3.03;;
5795;SDS011;2924;51.458;7.046;2023-03-14T13:58:57;14.70;;;2.80;;
5795;SDS011;2924;51.458;7.046;2023-03-14T14:03:50;13.20;;;2.27;;
5795;SDS011;2924;51.458;7.046;2023-03-14T14:08:53;13.73;;;2.80;;
5795;SDS011;2924;51.458;7.046;2023-03-14T14:11:42;13.97;;;2.23;;
5795;SDS011;2924;51.458;7.046;2023-03-14T14:17:05;15.80;;;3.00;;
5795;SDS011;2924;51.458;7.046;2023-03-14T14:19:35;23.57;;;3.17;;
5795;SDS011;2924;51.458;7.046;2023-03-14T14:22:01;12.37;;;2.20;;
5795;SDS011;2924;51.458;7.046;2023-03-14T14:24:30;12.70;;;2.70;;
5795;SDS011;2924;51.458;7.046;2023-03-14T14:27:02;8.47;;;1.47;;
5795;SDS011;2924;51.458;7.046;2023-03-14T14:29:44;9.53;;;1.47;;
5795;SDS011;2924;51.458;7.046;2023-03-14T14:32:21;9.40;;;2.47;;
5795;SDS011;2924;51.458;7.046;2023-03-14T14:34:48;11.60;;;2.20;;
5795;SDS011;2924;51.458;7.046;2023-03-14T14:39:52;7.80;;;1.60;;
5795;SDS011;2924;51.458;7.046;2023-03-14T14:42:24;4.00;;;1.40;;
5795;SDS011;2924;51.458;7.046;2023-03-14T14:44:53;8.07;;;1.87;;
5795;SDS011;2924;51.458;7.046;2023-03-14T14:47:23;4.83;;;1.70;;
5795;SDS011;2924;51.458;7.046;2023-03-14T14:49:51;7.33;;;1.33;;
5795;SDS011;2924;51.458;7.046;2023-03-14T14:52:19;8.00;;;1.33;;
5795;SDS011;2924;51.458;7.046;2023-03-14T14:55:10;5.37;;;1.43;;
5795;SDS011;2924;51.458;7.046;2023-03-14T14:57:40;4.30;;;0.90;;
5795;SDS011;2924;51.458;7.046;2023-03-14T15:00:20;5.40;;;1.57;;
5795;SDS011;2924;51.458;7.046;2023-03-14T15:02:48;7.50;;;1.33;;
5795;SDS011;2924;51.458;7.046;2023-03-14T15:05:18;4.53;;;1.33;;
5795;SDS011;2924;51.458;7.046;2023-03-14T15:07:46;6.07;;;1.53;;
5795;SDS011;2924;51.458;7.046;2023-03-14T15:10:13;8.20;;;1.87;;
5795;SDS011;2924;51.458;7.046;2023-03-14T15:12:43;6.87;;;1.33;;
5795;SDS011;2924;51.458;7.046;2023-03-14T15:15:09;8.67;;;1.60;;
5795;SDS011;2924;51.458;7.046;2023-03-14T15:17:35;8.90;;;1.40;;
5795;SDS011;2924;51.458;7.046;2023-03-14T15:20:03;8.17;;;1.43;;
5795;SDS011;2924;51.458;7.046;2023-03-14T15:22:30;5.23;;;1.60;;
5795;SDS011;2924;51.458;7.046;2023-03-14T15:24:56;5.40;;;1.50;;
5795;SDS011;2924;51.458;7.046;2023-03-14T15:27:21;5.30;;;1.43;;
5795;SDS011;2924;51.458;7.046;2023-03-14T15:29:47;9.57;;;1.40;;
5795;SDS011;2924;51.458;7.046;2023-03-14T15:32:14;7.43;;;1.40;;
5795;SDS011;2924;51.458;7.046;2023-03-14T15:34:41;6.00;;;0.90;;
5795;SDS011;2924;51.458;7.046;2023-03-14T15:37:11;11.23;;;1.37;;
5795;SDS011;2924;51.458;7.046;2023-03-14T15:39:38;4.03;;;0.90;;
5795;SDS011;2924;51.458;7.046;2023-03-14T15:42:04;6.10;;;1.23;;
5795;SDS011;2924;51.458;7.046;2023-03-14T15:44:30;4.67;;;1.33;;
5795;SDS011;2924;51.458;7.046;2023-03-14T15:46:56;2.60;;;0.83;;
5795;SDS011;2924;51.458;7.046;2023-03-14T15:49:21;7.43;;;1.43;;
5795;SDS011;2924;51.458;7.046;2023-03-14T15:51:47;7.00;;;0.90;;
5795;SDS011;2924;51.458;7.046;2023-03-14T15:54:13;3.07;;;1.20;;
5795;SDS011;2924;51.458;7.046;2023-03-14T15:56:39;4.20;;;1.17;;
5795;SDS011;2924;51.458;7.046;2023-03-14T15:59:05;5.07;;;0.73;;
5795;SDS011;2924;51.458;7.046;2023-03-14T16:01:30;6.43;;;1.40;;
5795;SDS011;2924;51.458;7.046;2023-03-14T16:03:56;7.23;;;1.23;;
5795;SDS011;2924;51.458;7.046;2023-03-14T16:06:22;3.47;;;1.07;;
5795;SDS011;2924;51.458;7.046;2023-03-14T16:08:47;2.13;;;1.00;;
5795;SDS011;2924;51.458;7.046;2023-03-14T16:11:14;11.73;;;2.13;;
5795;SDS011;2924;51.458;7.046;2023-03-14T16:13:42;3.60;;;1.07;;
5795;SDS011;2924;51.458;7.046;2023-03-14T16:16:08;6.70;;;1.03;;
5795;SDS011;2924;51.458;7.046;2023-03-14T16:18:35;3.70;;;0.97;;
5795;SDS011;2924;51.458;7.046;2023-03-14T16:21:12;3.33;;;1.27;;
5795;SDS011;2924;51.458;7.046;2023-03-14T16:23:40;5.90;;;0.80;;
5795;SDS011;2924;51.458;7.046;2023-03-14T16:26:06;8.77;;;1.57;;
5795;SDS011;2924;51.458;7.046;2023-03-14T16:28:34;5.07;;;0.90;;
5795;SDS011;2924;51.458;7.046;2023-03-14T16:31:04;2.70;;;1.30;;
5795;SDS011;2924;51.458;7.046;2023-03-14T16:33:31;2.90;;;0.87;;
5795;SDS011;2924;51.458;7.046;2023-03-14T16:35:58;6.13;;;0.93;;
5795;SDS011;2924;51.458;7.046;2023-03-14T16:38:25;4.30;;;0.93;;
5795;SDS011;2924;51.458;7.046;2023-03-14T16:40:56;5.40;;;1.10;;
5795;SDS011;2924;51.458;7.046;2023-03-14T16:43:29;2.83;;;0.90;;
5795;SDS011;2924;51.458;7.046;2023-03-14T16:45:56;10.20;;;1.37;;
5795;SDS011;2924;51.458;7.046;2023-03-14T16:48:23;4.07;;;0.70;;
5795;SDS011;2924;51.458;7.046;2023-03-14T16:50:50;5.90;;;0.73;;